sensor_id;sensor_type;location;lat;lon;timestamp;temperature;humidity
30379;DHT22;17168;49.164;9.060;2023-05-10T00:02:31;14.50;99.90
30379;DHT22;17168;49.164;9.060;2023-05-10T00:05:16;14.50;99.90
30379;DHT22;17168;49.164;9.060;2023-05-10T00:08:00;14.40;99.90
30379;DHT22;17168;49.164;9.060;2023-05-10T00:10:39;14.40;99.90
30379;DHT22;17168;49.164;9.060;2023-05-10T00:13:20;14.40;99.90
30379;DHT22;17168;49.164;9.060;2023-05-10T00:16:17;14.40;99.90
30379;DHT22;17168;49.164;9.060;2023-05-10T00:19:07;14.40;99.90
30379;DHT22;17168;49.164;9.060;2023-05-10T00:22:05;14.40;99.90
30379;DHT22;17168;49.164;9.060;2023-05-10T00:25:06;14.40;99.90
30379;DHT22;17168;49.164;9.060;2023-05-10T00:28:05;14.40;99.90
30379;DHT22;17168;49.164;9.060;2023-05-10T00:30:58;14.40;99.90
30379;DHT22;17168;49.164;9.060;2023-05-10T00:33:57;14.40;99.90
30379;DHT22;17168;49.164;9.060;2023-05-10T00:36:54;14.30;99.90
30379;DHT22;17168;49.164;9.060;2023-05-10T00:39:54;14.30;99.90
30379;DHT22;17168;49.164;9.060;2023-05-10T00:42:49;14.30;99.90
30379;DHT22;17168;49.164;9.060;2023-05-10T00:45:52;14.30;99.90
30379;DHT22;17168;49.164;9.060;2023-05-10T00:48:46;14.30;99.90
30379;DHT22;17168;49.164;9.060;2023-05-10T00:51:40;14.20;99.90
30379;DHT22;17168;49.164;9.060;2023-05-10T00:54:27;14.20;99.90
30379;DHT22;17168;49.164;9.060;2023-05-10T00:57:25;14.20;99.90
30379;DHT22;17168;49.164;9.060;2023-05-10T01:00:17;14.20;99.90
30379;DHT22;17168;49.164;9.060;2023-05-10T01:03:06;14.20;99.90
30379;DHT22;17168;49.164;9.060;2023-05-10T01:06:02;14.10;99.90
30379;DHT22;17168;49.164;9.060;2023-05-10T01:08:58;14.10;99.90
30379;DHT22;17168;49.164;9.060;2023-05-10T01:11:43;14.10;99.90
30379;DHT22;17168;49.164;9.060;2023-05-10T01:14:32;14.10;99.90
30379;DHT22;17168;49.164;9.060;2023-05-10T01:17:27;14.10;99.90
30379;DHT22;17168;49.164;9.060;2023-05-10T01:20:18;14.00;99.90
30379;DHT22;17168;49.164;9.060;2023-05-10T01:29:49;14.00;99.90
30379;DHT22;17168;49.164;9.060;2023-05-10T01:32:57;14.00;99.90
30379;DHT22;17168;49.164;9.060;2023-05-10T01:35:47;14.00;99.90
30379;DHT22;17168;49.164;9.060;2023-05-10T01:38:40;14.00;99.90
30379;DHT22;17168;49.164;9.060;2023-05-10T01:41:28;14.00;99.90
30379;DHT22;17168;49.164;9.060;2023-05-10T01:44:23;14.00;99.90
30379;DHT22;17168;49.164;9.060;2023-05-10T01:47:10;13.90;99.90
30379;DHT22;17168;49.164;9.060;2023-05-10T01:49:56;13.90;99.90
30379;DHT22;17168;49.164;9.060;2023-05-10T01:52:44;13.90;99.90
30379;DHT22;17168;49.164;9.060;2023-05-10T01:55:39;13.90;99.90
30379;DHT22;17168;49.164;9.060;2023-05-10T01:58:35;13.90;99.90
30379;DHT22;17168;49.164;9.060;2023-05-10T02:01:28;13.90;99.90
30379;DHT22;17168;49.164;9.060;2023-05-10T02:04:21;13.90;99.90
30379;DHT22;17168;49.164;9.060;2023-05-10T02:07:22;13.80;99.90
30379;DHT22;17168;49.164;9.060;2023-05-10T02:10:13;13.80;99.90
30379;DHT22;17168;49.164;9.060;2023-05-10T02:13:05;13.80;99.90
30379;DHT22;17168;49.164;9.060;2023-05-10T02:15:56;13.80;99.90
30379;DHT22;17168;49.164;9.060;2023-05-10T02:18:46;13.80;99.90
30379;DHT22;17168;49.164;9.060;2023-05-10T02:21:32;13.80;99.90
30379;DHT22;17168;49.164;9.060;2023-05-10T02:24:22;13.80;99.90
30379;DHT22;17168;49.164;9.060;2023-05-10T02:27:10;13.80;99.90
30379;DHT22;17168;49.164;9.060;2023-05-10T02:29:56;13.80;99.90
30379;DHT22;17168;49.164;9.060;2023-05-10T02:32:40;13.80;99.90
30379;DHT22;17168;49.164;9.060;2023-05-10T02:35:29;13.80;99.90
30379;DHT22;17168;49.164;9.060;2023-05-10T02:38:17;13.80;99.90
30379;DHT22;17168;49.164;9.060;2023-05-10T02:41:10;13.80;99.90
30379;DHT22;17168;49.164;9.060;2023-05-10T02:43:59;13.80;99.90
30379;DHT22;17168;49.164;9.060;2023-05-10T02:46:40;13.80;99.90
30379;DHT22;17168;49.164;9.060;2023-05-10T02:49:24;13.70;99.90
30379;DHT22;17168;49.164;9.060;2023-05-10T02:52:07;13.70;99.90
30379;DHT22;17168;49.164;9.060;2023-05-10T02:54:54;13.70;99.90
30379;DHT22;17168;49.164;9.060;2023-05-10T02:57:35;13.70;99.90
30379;DHT22;17168;49.164;9.060;2023-05-10T03:00:22;13.70;99.90
30379;DHT22;17168;49.164;9.060;2023-05-10T03:03:14;13.70;99.90
30379;DHT22;17168;49.164;9.060;2023-05-10T03:06:09;13.70;99.90
30379;DHT22;17168;49.164;9.060;2023-05-10T03:08:59;13.70;99.90
30379;DHT22;17168;49.164;9.060;2023-05-10T03:11:54;13.70;99.90
30379;DHT22;17168;49.164;9.060;2023-05-10T03:14:51;13.70;99.90
30379;DHT22;17168;49.164;9.060;2023-05-10T03:17:39;13.70;99.90
30379;DHT22;17168;49.164;9.060;2023-05-10T03:20:31;13.70;99.90
30379;DHT22;17168;49.164;9.060;2023-05-10T03:23:27;13.70;99.90
30379;DHT22;17168;49.164;9.060;2023-05-10T03:26:24;13.80;99.90
30379;DHT22;17168;49.164;9.060;2023-05-10T03:29:19;13.80;99.90
30379;DHT22;17168;49.164;9.060;2023-05-10T03:32:23;13.80;99.90
30379;DHT22;17168;49.164;9.060;2023-05-10T03:35:20;13.80;99.90
30379;DHT22;17168;49.164;9.060;2023-05-10T03:38:24;13.90;99.90
30379;DHT22;17168;49.164;9.060;2023-05-10T03:41:24;13.90;99.90
30379;DHT22;17168;49.164;9.060;2023-05-10T03:44:19;13.90;99.90
30379;DHT22;17168;49.164;9.060;2023-05-10T03:47:31;13.90;99.90
30379;DHT22;17168;49.164;9.060;2023-05-10T03:50:36;13.90;99.90
30379;DHT22;17168;49.164;9.060;2023-05-10T03:53:37;13.90;99.90
30379;DHT22;17168;49.164;9.060;2023-05-10T03:56:32;13.90;99.90
30379;DHT22;17168;49.164;9.060;2023-05-10T03:59:27;13.80;99.90
30379;DHT22;17168;49.164;9.060;2023-05-10T04:02:39;13.80;99.90
30379;DHT22;17168;49.164;9.060;2023-05-10T04:05:43;13.80;99.90
30379;DHT22;17168;49.164;9.060;2023-05-10T04:08:55;13.80;99.90
30379;DHT22;17168;49.164;9.060;2023-05-10T04:15:21;13.80;99.90
30379;DHT22;17168;49.164;9.060;2023-05-10T04:18:11;13.90;99.90
30379;DHT22;17168;49.164;9.060;2023-05-10T04:21:01;13.90;99.90
30379;DHT22;17168;49.164;9.060;2023-05-10T04:23:44;13.80;99.90
30379;DHT22;17168;49.164;9.060;2023-05-10T04:26:19;13.90;99.90
30379;DHT22;17168;49.164;9.060;2023-05-10T04:28:54;13.90;99.90
30379;DHT22;17168;49.164;9.060;2023-05-10T04:31:26;13.80;99.90
30379;DHT22;17168;49.164;9.060;2023-05-10T04:34:02;13.90;99.90
30379;DHT22;17168;49.164;9.060;2023-05-10T04:36:35;13.90;99.90
30379;DHT22;17168;49.164;9.060;2023-05-10T04:39:08;13.90;99.90
30379;DHT22;17168;49.164;9.060;2023-05-10T04:41:48;13.90;99.90
30379;DHT22;17168;49.164;9.060;2023-05-10T04:44:34;13.90;99.90
30379;DHT22;17168;49.164;9.060;2023-05-10T04:47:08;13.90;99.90
30379;DHT22;17168;49.164;9.060;2023-05-10T04:49:48;13.90;99.90
30379;DHT22;17168;49.164;9.060;2023-05-10T04:52:23;13.90;99.90
30379;DHT22;17168;49.164;9.060;2023-05-10T04:55:06;13.90;99.90
30379;DHT22;17168;49.164;9.060;2023-05-10T04:57:44;13.90;99.90
30379;DHT22;17168;49.164;9.060;2023-05-10T05:00:34;13.90;99.90
30379;DHT22;17168;49.164;9.060;2023-05-10T05:03:13;13.90;99.90
30379;DHT22;17168;49.164;9.060;2023-05-10T05:09:52;13.90;99.90
30379;DHT22;17168;49.164;9.060;2023-05-10T05:18:33;13.90;99.90
30379;DHT22;17168;49.164;9.060;2023-05-10T05:41:20;13.90;99.90
30379;DHT22;17168;49.164;9.060;2023-05-10T05:43:58;14.00;99.90
30379;DHT22;17168;49.164;9.060;2023-05-10T05:46:34;14.00;99.90
30379;DHT22;17168;49.164;9.060;2023-05-10T05:49:07;14.00;99.90
30379;DHT22;17168;49.164;9.060;2023-05-10T05:51:42;14.00;99.90
30379;DHT22;17168;49.164;9.060;2023-05-10T05:54:17;14.00;99.90
30379;DHT22;17168;49.164;9.060;2023-05-10T05:56:54;14.10;99.90
30379;DHT22;17168;49.164;9.060;2023-05-10T05:59:27;14.10;99.90
30379;DHT22;17168;49.164;9.060;2023-05-10T06:02:01;14.10;99.90
30379;DHT22;17168;49.164;9.060;2023-05-10T06:04:35;14.10;99.90
30379;DHT22;17168;49.164;9.060;2023-05-10T06:07:09;14.10;99.90
30379;DHT22;17168;49.164;9.060;2023-05-10T06:09:42;14.10;99.90
30379;DHT22;17168;49.164;9.060;2023-05-10T06:12:18;14.20;99.90
30379;DHT22;17168;49.164;9.060;2023-05-10T06:14:51;14.20;99.90
30379;DHT22;17168;49.164;9.060;2023-05-10T06:17:23;14.20;99.90
30379;DHT22;17168;49.164;9.060;2023-05-10T06:19:56;14.20;99.90
30379;DHT22;17168;49.164;9.060;2023-05-10T06:22:31;14.30;99.90
30379;DHT22;17168;49.164;9.060;2023-05-10T06:25:04;14.30;99.90
30379;DHT22;17168;49.164;9.060;2023-05-10T06:27:39;14.30;99.90
30379;DHT22;17168;49.164;9.060;2023-05-10T06:30:13;14.30;99.90
30379;DHT22;17168;49.164;9.060;2023-05-10T06:32:48;14.30;99.90
30379;DHT22;17168;49.164;9.060;2023-05-10T06:35:21;14.40;99.90
30379;DHT22;17168;49.164;9.060;2023-05-10T06:37:54;14.40;99.90
30379;DHT22;17168;49.164;9.060;2023-05-10T06:40:27;14.40;99.90
30379;DHT22;17168;49.164;9.060;2023-05-10T06:43:02;14.40;99.90
30379;DHT22;17168;49.164;9.060;2023-05-10T06:45:34;14.40;99.90
30379;DHT22;17168;49.164;9.060;2023-05-10T06:48:07;14.50;99.90
30379;DHT22;17168;49.164;9.060;2023-05-10T06:50:42;14.50;99.90
30379;DHT22;17168;49.164;9.060;2023-05-10T06:53:14;14.50;99.90
30379;DHT22;17168;49.164;9.060;2023-05-10T06:55:49;14.50;99.90
30379;DHT22;17168;49.164;9.060;2023-05-10T06:58:24;14.60;99.90
30379;DHT22;17168;49.164;9.060;2023-05-10T07:01:01;14.60;99.90
30379;DHT22;17168;49.164;9.060;2023-05-10T07:03:34;14.60;99.90
30379;DHT22;17168;49.164;9.060;2023-05-10T07:06:08;14.60;99.90
30379;DHT22;17168;49.164;9.060;2023-05-10T07:08:56;14.70;99.90
30379;DHT22;17168;49.164;9.060;2023-05-10T07:11:29;14.70;99.90
30379;DHT22;17168;49.164;9.060;2023-05-10T07:14:07;14.70;99.90
30379;DHT22;17168;49.164;9.060;2023-05-10T07:16:40;14.70;99.90
30379;DHT22;17168;49.164;9.060;2023-05-10T07:19:14;14.70;99.90
30379;DHT22;17168;49.164;9.060;2023-05-10T07:21:47;14.70;99.90
30379;DHT22;17168;49.164;9.060;2023-05-10T07:24:21;14.60;99.90
30379;DHT22;17168;49.164;9.060;2023-05-10T07:26:55;14.60;99.90
30379;DHT22;17168;49.164;9.060;2023-05-10T07:29:31;14.60;99.90
30379;DHT22;17168;49.164;9.060;2023-05-10T07:32:04;14.70;99.90
30379;DHT22;17168;49.164;9.060;2023-05-10T07:34:37;14.70;99.90
30379;DHT22;17168;49.164;9.060;2023-05-10T07:37:10;14.70;99.90
30379;DHT22;17168;49.164;9.060;2023-05-10T07:39:43;14.70;99.90
30379;DHT22;17168;49.164;9.060;2023-05-10T07:42:16;14.70;99.90
30379;DHT22;17168;49.164;9.060;2023-05-10T07:44:51;14.80;99.90
30379;DHT22;17168;49.164;9.060;2023-05-10T07:47:23;14.80;99.90
30379;DHT22;17168;49.164;9.060;2023-05-10T07:49:56;14.80;99.90
30379;DHT22;17168;49.164;9.060;2023-05-10T07:52:28;14.90;99.90
30379;DHT22;17168;49.164;9.060;2023-05-10T07:55:01;14.90;99.90
30379;DHT22;17168;49.164;9.060;2023-05-10T07:57:33;14.90;99.90
30379;DHT22;17168;49.164;9.060;2023-05-10T08:00:11;15.00;99.90
30379;DHT22;17168;49.164;9.060;2023-05-10T08:02:44;15.00;99.90
30379;DHT22;17168;49.164;9.060;2023-05-10T08:05:18;15.00;99.90
30379;DHT22;17168;49.164;9.060;2023-05-10T08:07:51;15.00;99.90
30379;DHT22;17168;49.164;9.060;2023-05-10T08:10:24;15.00;99.90
30379;DHT22;17168;49.164;9.060;2023-05-10T08:12:57;15.00;99.90
30379;DHT22;17168;49.164;9.060;2023-05-10T08:15:33;15.00;99.90
30379;DHT22;17168;49.164;9.060;2023-05-10T08:18:05;15.00;99.90
30379;DHT22;17168;49.164;9.060;2023-05-10T08:20:38;15.00;99.90
30379;DHT22;17168;49.164;9.060;2023-05-10T08:23:11;15.00;99.90
30379;DHT22;17168;49.164;9.060;2023-05-10T08:25:44;15.00;99.90
30379;DHT22;17168;49.164;9.060;2023-05-10T08:28:17;15.00;99.90
30379;DHT22;17168;49.164;9.060;2023-05-10T08:30:52;15.00;99.90
30379;DHT22;17168;49.164;9.060;2023-05-10T08:33:25;15.00;99.90
30379;DHT22;17168;49.164;9.060;2023-05-10T08:35:58;15.00;99.90
30379;DHT22;17168;49.164;9.060;2023-05-10T08:38:30;15.10;99.90
30379;DHT22;17168;49.164;9.060;2023-05-10T08:41:02;15.10;99.90
30379;DHT22;17168;49.164;9.060;2023-05-10T08:43:36;15.10;99.90
30379;DHT22;17168;49.164;9.060;2023-05-10T08:46:13;15.20;99.90
30379;DHT22;17168;49.164;9.060;2023-05-10T08:48:49;15.20;99.90
30379;DHT22;17168;49.164;9.060;2023-05-10T08:51:24;15.20;99.90
30379;DHT22;17168;49.164;9.060;2023-05-10T08:53:59;15.20;99.90
30379;DHT22;17168;49.164;9.060;2023-05-10T08:56:31;15.20;99.90
30379;DHT22;17168;49.164;9.060;2023-05-10T08:59:04;15.30;99.90
30379;DHT22;17168;49.164;9.060;2023-05-10T09:01:39;15.30;99.90
30379;DHT22;17168;49.164;9.060;2023-05-10T09:04:12;15.30;99.90
30379;DHT22;17168;49.164;9.060;2023-05-10T09:06:46;15.40;99.90
30379;DHT22;17168;49.164;9.060;2023-05-10T09:09:20;15.40;99.90
30379;DHT22;17168;49.164;9.060;2023-05-10T09:11:54;15.50;99.90
30379;DHT22;17168;49.164;9.060;2023-05-10T09:14:26;15.50;99.90
30379;DHT22;17168;49.164;9.060;2023-05-10T09:17:02;15.60;99.90
30379;DHT22;17168;49.164;9.060;2023-05-10T09:19:34;15.70;99.90
30379;DHT22;17168;49.164;9.060;2023-05-10T09:22:07;15.70;99.90
30379;DHT22;17168;49.164;9.060;2023-05-10T09:24:40;15.80;99.90
30379;DHT22;17168;49.164;9.060;2023-05-10T09:27:26;15.80;99.90
30379;DHT22;17168;49.164;9.060;2023-05-10T09:29:58;15.80;99.90
30379;DHT22;17168;49.164;9.060;2023-05-10T09:32:42;15.90;99.90
30379;DHT22;17168;49.164;9.060;2023-05-10T09:35:17;15.90;99.90
30379;DHT22;17168;49.164;9.060;2023-05-10T09:37:53;15.80;99.90
30379;DHT22;17168;49.164;9.060;2023-05-10T09:40:28;15.70;99.90
30379;DHT22;17168;49.164;9.060;2023-05-10T09:43:03;15.70;99.90
30379;DHT22;17168;49.164;9.060;2023-05-10T09:45:36;15.70;99.90
30379;DHT22;17168;49.164;9.060;2023-05-10T09:48:17;15.60;99.90
30379;DHT22;17168;49.164;9.060;2023-05-10T09:50:56;15.60;99.90
30379;DHT22;17168;49.164;9.060;2023-05-10T09:53:29;15.70;99.90
30379;DHT22;17168;49.164;9.060;2023-05-10T09:56:01;15.70;99.90
30379;DHT22;17168;49.164;9.060;2023-05-10T09:58:36;15.80;99.90
30379;DHT22;17168;49.164;9.060;2023-05-10T10:01:11;15.80;99.90
30379;DHT22;17168;49.164;9.060;2023-05-10T10:03:46;15.80;99.90
30379;DHT22;17168;49.164;9.060;2023-05-10T10:06:20;15.90;99.90
30379;DHT22;17168;49.164;9.060;2023-05-10T10:09:01;15.90;99.90
30379;DHT22;17168;49.164;9.060;2023-05-10T10:11:34;15.90;99.90
30379;DHT22;17168;49.164;9.060;2023-05-10T10:14:07;15.90;99.90
30379;DHT22;17168;49.164;9.060;2023-05-10T10:16:39;15.90;99.90
30379;DHT22;17168;49.164;9.060;2023-05-10T10:19:33;15.90;99.90
30379;DHT22;17168;49.164;9.060;2023-05-10T10:22:08;15.80;99.90
30379;DHT22;17168;49.164;9.060;2023-05-10T10:24:43;15.80;99.90
30379;DHT22;17168;49.164;9.060;2023-05-10T10:27:22;15.80;99.90
30379;DHT22;17168;49.164;9.060;2023-05-10T10:30:03;15.80;99.90
30379;DHT22;17168;49.164;9.060;2023-05-10T10:32:59;15.80;99.90
30379;DHT22;17168;49.164;9.060;2023-05-10T10:35:51;15.70;99.90
30379;DHT22;17168;49.164;9.060;2023-05-10T10:38:24;15.80;99.90
30379;DHT22;17168;49.164;9.060;2023-05-10T10:41:02;15.80;99.90
30379;DHT22;17168;49.164;9.060;2023-05-10T10:43:34;15.80;99.90
30379;DHT22;17168;49.164;9.060;2023-05-10T10:46:13;15.80;99.90
30379;DHT22;17168;49.164;9.060;2023-05-10T10:48:48;15.90;99.90
30379;DHT22;17168;49.164;9.060;2023-05-10T10:51:24;15.90;99.90
30379;DHT22;17168;49.164;9.060;2023-05-10T10:54:08;15.90;99.90
30379;DHT22;17168;49.164;9.060;2023-05-10T10:56:41;15.90;99.90
30379;DHT22;17168;49.164;9.060;2023-05-10T10:59:27;16.00;99.90
30379;DHT22;17168;49.164;9.060;2023-05-10T11:02:01;16.00;99.90
30379;DHT22;17168;49.164;9.060;2023-05-10T11:04:43;16.00;99.90
30379;DHT22;17168;49.164;9.060;2023-05-10T11:07:23;16.00;99.90
30379;DHT22;17168;49.164;9.060;2023-05-10T11:09:55;16.10;99.90
30379;DHT22;17168;49.164;9.060;2023-05-10T11:12:51;16.00;99.90
30379;DHT22;17168;49.164;9.060;2023-05-10T11:15:29;16.10;99.90
30379;DHT22;17168;49.164;9.060;2023-05-10T11:18:20;16.00;99.90
30379;DHT22;17168;49.164;9.060;2023-05-10T11:20:57;15.90;98.90
30379;DHT22;17168;49.164;9.060;2023-05-10T11:23:49;15.80;98.40
30379;DHT22;17168;49.164;9.060;2023-05-10T11:26:21;15.70;99.50
30379;DHT22;17168;49.164;9.060;2023-05-10T11:28:59;15.60;99.40
30379;DHT22;17168;49.164;9.060;2023-05-10T11:31:32;15.50;99.10
30379;DHT22;17168;49.164;9.060;2023-05-10T11:34:05;15.40;99.90
30379;DHT22;17168;49.164;9.060;2023-05-10T11:36:39;15.40;99.90
30379;DHT22;17168;49.164;9.060;2023-05-10T11:39:14;15.40;99.90
30379;DHT22;17168;49.164;9.060;2023-05-10T11:41:50;15.30;99.90
30379;DHT22;17168;49.164;9.060;2023-05-10T11:44:23;15.30;99.90
30379;DHT22;17168;49.164;9.060;2023-05-10T11:46:58;15.30;99.90
30379;DHT22;17168;49.164;9.060;2023-05-10T11:49:32;15.40;99.90
30379;DHT22;17168;49.164;9.060;2023-05-10T11:52:05;15.50;99.90
30379;DHT22;17168;49.164;9.060;2023-05-10T11:54:45;15.50;99.90
30379;DHT22;17168;49.164;9.060;2023-05-10T11:57:20;15.60;99.90
30379;DHT22;17168;49.164;9.060;2023-05-10T11:59:54;15.70;99.90
30379;DHT22;17168;49.164;9.060;2023-05-10T12:02:29;15.80;99.90
30379;DHT22;17168;49.164;9.060;2023-05-10T12:05:03;15.80;99.90
30379;DHT22;17168;49.164;9.060;2023-05-10T12:07:37;15.80;99.90
30379;DHT22;17168;49.164;9.060;2023-05-10T12:10:13;15.80;99.90
30379;DHT22;17168;49.164;9.060;2023-05-10T12:12:47;15.90;99.90
30379;DHT22;17168;49.164;9.060;2023-05-10T12:15:22;15.90;99.90
30379;DHT22;17168;49.164;9.060;2023-05-10T12:17:56;16.00;99.90
30379;DHT22;17168;49.164;9.060;2023-05-10T12:20:29;16.00;99.90
30379;DHT22;17168;49.164;9.060;2023-05-10T12:23:02;16.10;99.90
30379;DHT22;17168;49.164;9.060;2023-05-10T12:25:37;16.10;99.90
30379;DHT22;17168;49.164;9.060;2023-05-10T12:28:10;16.20;99.40
30379;DHT22;17168;49.164;9.060;2023-05-10T12:30:44;16.30;98.70
30379;DHT22;17168;49.164;9.060;2023-05-10T12:33:17;16.30;95.70
30379;DHT22;17168;49.164;9.060;2023-05-10T12:35:51;16.30;95.60
30379;DHT22;17168;49.164;9.060;2023-05-10T12:38:28;16.30;96.30
30379;DHT22;17168;49.164;9.060;2023-05-10T12:41:06;16.40;97.00
30379;DHT22;17168;49.164;9.060;2023-05-10T12:43:39;16.50;96.50
30379;DHT22;17168;49.164;9.060;2023-05-10T12:46:13;16.60;94.60
30379;DHT22;17168;49.164;9.060;2023-05-10T12:48:46;16.60;94.30
30379;DHT22;17168;49.164;9.060;2023-05-10T12:51:34;16.60;94.20
30379;DHT22;17168;49.164;9.060;2023-05-10T12:54:06;16.60;93.60
30379;DHT22;17168;49.164;9.060;2023-05-10T12:56:41;16.60;90.90
30379;DHT22;17168;49.164;9.060;2023-05-10T12:59:14;16.50;91.90
30379;DHT22;17168;49.164;9.060;2023-05-10T13:01:47;16.50;91.40
30379;DHT22;17168;49.164;9.060;2023-05-10T13:04:20;16.40;91.20
30379;DHT22;17168;49.164;9.060;2023-05-10T13:06:52;16.40;91.30
30379;DHT22;17168;49.164;9.060;2023-05-10T13:09:25;16.40;93.20
30379;DHT22;17168;49.164;9.060;2023-05-10T13:12:01;16.50;94.20
30379;DHT22;17168;49.164;9.060;2023-05-10T13:14:34;16.60;93.20
30379;DHT22;17168;49.164;9.060;2023-05-10T13:17:06;16.70;92.10
30379;DHT22;17168;49.164;9.060;2023-05-10T13:19:39;16.80;91.90
30379;DHT22;17168;49.164;9.060;2023-05-10T13:22:12;16.80;90.70
30379;DHT22;17168;49.164;9.060;2023-05-10T13:24:44;16.90;82.00
30379;DHT22;17168;49.164;9.060;2023-05-10T13:27:19;16.90;79.40
30379;DHT22;17168;49.164;9.060;2023-05-10T13:29:53;17.00;82.00
30379;DHT22;17168;49.164;9.060;2023-05-10T13:32:29;17.00;83.70
30379;DHT22;17168;49.164;9.060;2023-05-10T13:35:03;17.00;78.20
30379;DHT22;17168;49.164;9.060;2023-05-10T13:37:36;17.00;78.20
30379;DHT22;17168;49.164;9.060;2023-05-10T13:40:13;17.00;78.40
30379;DHT22;17168;49.164;9.060;2023-05-10T13:42:50;17.00;77.10
30379;DHT22;17168;49.164;9.060;2023-05-10T13:45:23;17.00;77.10
30379;DHT22;17168;49.164;9.060;2023-05-10T13:47:55;17.00;81.10
30379;DHT22;17168;49.164;9.060;2023-05-10T13:50:28;17.00;78.80
30379;DHT22;17168;49.164;9.060;2023-05-10T13:53:01;17.00;80.70
30379;DHT22;17168;49.164;9.060;2023-05-10T13:55:34;17.10;79.10
30379;DHT22;17168;49.164;9.060;2023-05-10T13:58:09;17.10;77.40
30379;DHT22;17168;49.164;9.060;2023-05-10T14:00:41;17.20;79.30
30379;DHT22;17168;49.164;9.060;2023-05-10T14:03:13;17.30;79.70
30379;DHT22;17168;49.164;9.060;2023-05-10T14:05:46;17.30;77.20
30379;DHT22;17168;49.164;9.060;2023-05-10T14:08:20;17.30;74.90
30379;DHT22;17168;49.164;9.060;2023-05-10T14:10:53;17.30;75.40
30379;DHT22;17168;49.164;9.060;2023-05-10T14:13:30;17.30;74.60
30379;DHT22;17168;49.164;9.060;2023-05-10T14:16:04;17.30;74.90
30379;DHT22;17168;49.164;9.060;2023-05-10T14:18:36;17.30;74.30
30379;DHT22;17168;49.164;9.060;2023-05-10T14:21:09;17.30;73.10
30379;DHT22;17168;49.164;9.060;2023-05-10T14:23:41;17.30;75.50
30379;DHT22;17168;49.164;9.060;2023-05-10T14:26:14;17.40;77.00
30379;DHT22;17168;49.164;9.060;2023-05-10T14:28:49;17.40;74.90
30379;DHT22;17168;49.164;9.060;2023-05-10T14:31:21;17.50;74.50
30379;DHT22;17168;49.164;9.060;2023-05-10T14:33:57;17.60;77.80
30379;DHT22;17168;49.164;9.060;2023-05-10T14:36:29;17.60;74.90
30379;DHT22;17168;49.164;9.060;2023-05-10T14:39:02;17.60;73.50
30379;DHT22;17168;49.164;9.060;2023-05-10T14:41:35;17.50;75.70
30379;DHT22;17168;49.164;9.060;2023-05-10T14:44:11;17.50;75.10
30379;DHT22;17168;49.164;9.060;2023-05-10T14:46:43;17.60;76.50
30379;DHT22;17168;49.164;9.060;2023-05-10T14:49:16;17.60;76.60
30379;DHT22;17168;49.164;9.060;2023-05-10T14:51:49;17.60;75.10
30379;DHT22;17168;49.164;9.060;2023-05-10T14:54:22;17.60;75.20
30379;DHT22;17168;49.164;9.060;2023-05-10T14:56:54;17.60;76.70
30379;DHT22;17168;49.164;9.060;2023-05-10T14:59:30;17.60;75.40
30379;DHT22;17168;49.164;9.060;2023-05-10T15:02:03;17.70;73.70
30379;DHT22;17168;49.164;9.060;2023-05-10T15:04:37;17.70;74.30
30379;DHT22;17168;49.164;9.060;2023-05-10T15:07:11;17.80;73.40
30379;DHT22;17168;49.164;9.060;2023-05-10T15:09:46;17.80;73.10
30379;DHT22;17168;49.164;9.060;2023-05-10T15:12:28;17.80;73.80
30379;DHT22;17168;49.164;9.060;2023-05-10T15:15:10;17.90;72.60
30379;DHT22;17168;49.164;9.060;2023-05-10T15:17:44;17.90;72.80
30379;DHT22;17168;49.164;9.060;2023-05-10T15:20:34;17.90;72.10
30379;DHT22;17168;49.164;9.060;2023-05-10T15:23:33;17.90;74.10
30379;DHT22;17168;49.164;9.060;2023-05-10T15:26:18;17.90;72.50
30379;DHT22;17168;49.164;9.060;2023-05-10T15:28:54;18.00;72.50
30379;DHT22;17168;49.164;9.060;2023-05-10T15:31:30;18.00;71.80
30379;DHT22;17168;49.164;9.060;2023-05-10T15:34:07;18.00;72.90
30379;DHT22;17168;49.164;9.060;2023-05-10T15:36:40;18.00;73.50
30379;DHT22;17168;49.164;9.060;2023-05-10T15:39:13;18.00;71.50
30379;DHT22;17168;49.164;9.060;2023-05-10T15:41:46;18.00;71.40
30379;DHT22;17168;49.164;9.060;2023-05-10T15:44:19;18.10;71.10
30379;DHT22;17168;49.164;9.060;2023-05-10T15:46:55;18.10;71.00
30379;DHT22;17168;49.164;9.060;2023-05-10T15:49:27;18.10;70.20
30379;DHT22;17168;49.164;9.060;2023-05-10T15:52:04;18.10;70.10
30379;DHT22;17168;49.164;9.060;2023-05-10T15:54:38;18.20;70.20
30379;DHT22;17168;49.164;9.060;2023-05-10T15:57:12;18.10;70.20
30379;DHT22;17168;49.164;9.060;2023-05-10T15:59:45;18.10;69.60
30379;DHT22;17168;49.164;9.060;2023-05-10T16:02:22;18.10;70.30
30379;DHT22;17168;49.164;9.060;2023-05-10T16:04:55;18.00;71.30
30379;DHT22;17168;49.164;9.060;2023-05-10T16:07:29;18.10;71.50
30379;DHT22;17168;49.164;9.060;2023-05-10T16:10:03;18.00;71.50
30379;DHT22;17168;49.164;9.060;2023-05-10T16:12:38;18.00;71.60
30379;DHT22;17168;49.164;9.060;2023-05-10T16:15:10;18.00;72.40
30379;DHT22;17168;49.164;9.060;2023-05-10T16:17:46;18.10;72.10
30379;DHT22;17168;49.164;9.060;2023-05-10T16:20:19;18.10;71.80
30379;DHT22;17168;49.164;9.060;2023-05-10T16:22:51;18.10;70.00
30379;DHT22;17168;49.164;9.060;2023-05-10T16:25:25;18.00;71.80
30379;DHT22;17168;49.164;9.060;2023-05-10T16:27:58;18.00;70.80
30379;DHT22;17168;49.164;9.060;2023-05-10T16:30:34;18.00;70.90
30379;DHT22;17168;49.164;9.060;2023-05-10T16:33:10;18.00;69.60
30379;DHT22;17168;49.164;9.060;2023-05-10T16:35:43;17.90;69.80
30379;DHT22;17168;49.164;9.060;2023-05-10T16:38:15;17.90;70.80
30379;DHT22;17168;49.164;9.060;2023-05-10T16:40:48;17.80;72.20
30379;DHT22;17168;49.164;9.060;2023-05-10T16:43:21;17.80;72.60
30379;DHT22;17168;49.164;9.060;2023-05-10T16:45:57;17.70;72.80
30379;DHT22;17168;49.164;9.060;2023-05-10T16:48:33;17.60;72.10
30379;DHT22;17168;49.164;9.060;2023-05-10T16:51:05;17.60;71.60
30379;DHT22;17168;49.164;9.060;2023-05-10T16:53:39;17.50;69.90
30379;DHT22;17168;49.164;9.060;2023-05-10T16:56:11;17.40;70.40
30379;DHT22;17168;49.164;9.060;2023-05-10T16:58:45;17.40;71.10
30379;DHT22;17168;49.164;9.060;2023-05-10T17:01:22;17.30;71.50
30379;DHT22;17168;49.164;9.060;2023-05-10T17:04:06;17.30;72.70
30379;DHT22;17168;49.164;9.060;2023-05-10T17:06:39;17.20;74.00
30379;DHT22;17168;49.164;9.060;2023-05-10T17:09:14;17.20;73.00
30379;DHT22;17168;49.164;9.060;2023-05-10T17:11:47;17.20;71.80
30379;DHT22;17168;49.164;9.060;2023-05-10T17:14:19;17.20;73.10
30379;DHT22;17168;49.164;9.060;2023-05-10T17:16:53;17.10;71.50
30379;DHT22;17168;49.164;9.060;2023-05-10T17:19:30;17.10;72.10
30379;DHT22;17168;49.164;9.060;2023-05-10T17:22:02;17.00;72.70
30379;DHT22;17168;49.164;9.060;2023-05-10T17:24:35;17.00;73.40
30379;DHT22;17168;49.164;9.060;2023-05-10T17:27:08;17.00;74.00